Hauptseite
METAR-TAF:

METAR-TAF

Flughäfen :

Flughafen Kerry

Killarney, Irland

Breite: 52-10-51N, Länge: 9-31-26W, Höhe: 34 m

Beobachtung

Neuester Wetterbericht von vor 7 Stunden und 50 Minuten, um 18:30 UTC
Wind 7 kt aus Süd
Temperatur 12°C
Luftfeuchtigkeit 54%
Luftdruck 1031 hPa
Sichtweite 10 km oder mehr
Leicht bewölkt in der Höhe von 4800 ft

METAR: EIKY 141830Z 17007KT 9999 FEW048 12/03 Q1031

Zeit: 03:20 (02:20 UTC)

Prognose

Neuester Wetterbericht von vor 9 Stunden und 20 Minuten, um 17:00 UTC
Gültige Prognose vom 14 um 18 UTC bis 15 um 03 UTC
Wind 8 kt aus Südost
Sichtweite 10 km oder mehr
Leicht bewölkt in der Höhe von 3500 ft

TAF: EIKY 141700Z 1418/1503 14008KT 9999 FEW035

Wetterbeobachtungen und Prognosen von mehr als 4000 Flughäfen (METAR und TAF Bericht).

Die verfügbaren Stationen werden durch gelbe und rote Markierungen auf der Karte dargestellt.

Führen Sie die Maus auf sie, um den Namen der Station zu sehen.

Darauf klicken, um die Beobachtung von Wetterbeobachtungen und Prognosen zu sehen.

Um die Karte zu ändern : klicken Sie auf den grünen Tasten mit einem schwarzen Kreuz Zum Vergrößern, auf den grünen Button mit einem Gedankenstrich zu verkleinern, oder auf die grünen Pfeile für benachbarte Karten.


METAR-TAF: